Time;durP1;ratioP1;P1;durP2;ratioP2;P2;SDS_P1;SDS_P2;PMS_P1;PMS_P2;Temp;Humidity;BMP_temperature;BMP_pressure;BME280_temperature;BME280_humidity;BME280_pressure;Samples;Min_cycle;Max_cycle;Signal;HPM_P1;HPM_P2
2021/08/29 00:02:05;;;;;;;6.88;4.20;;;21.50;48.50;;;;;;5036420;28;20032;-62
2021/08/29 00:04:31;;;;;;;4.60;4.07;;;21.60;48.50;;;;;;5027350;28;20037;-62
2021/08/29 00:06:56;;;;;;;7.18;4.18;;;21.60;48.50;;;;;;5034112;28;20036;-62
2021/08/29 00:09:22;;;;;;;5.10;3.78;;;21.50;48.60;;;;;;5051579;28;20116;-62
2021/08/29 00:11:48;;;;;;;6.82;4.32;;;21.50;48.80;;;;;;5037126;28;20025;-62
2021/08/29 00:14:13;;;;;;;4.40;4.00;;;21.40;48.90;;;;;;5028751;28;20033;-62
2021/08/29 00:16:39;;;;;;;6.93;4.22;;;21.50;48.80;;;;;;5017163;28;20033;-62
2021/08/29 00:19:04;;;;;;;4.60;4.13;;;21.40;48.80;;;;;;5016429;28;20029;-62
2021/08/29 00:21:30;;;;;;;6.72;4.43;;;21.40;48.90;;;;;;5017447;28;20030;-62
2021/08/29 00:23:56;;;;;;;6.50;4.78;;;21.30;49.40;;;;;;5017122;28;20037;-62
2021/08/29 00:26:23;;;;;;;5.13;4.63;;;21.40;49.30;;;;;;5035195;28;20068;-62
2021/08/29 00:28:49;;;;;;;6.15;4.55;;;21.30;49.00;;;;;;5034131;28;20511;-62
2021/08/29 00:31:15;;;;;;;5.20;4.32;;;21.30;49.20;;;;;;5034930;28;20045;-62
2021/08/29 00:33:41;;;;;;;6.28;4.65;;;21.10;49.00;;;;;;5034559;28;20037;-62
2021/08/29 00:36:06;;;;;;;5.65;3.95;;;21.00;49.30;;;;;;5033998;28;20025;-62
2021/08/29 00:38:32;;;;;;;6.10;4.20;;;21.20;57.50;;;;;;5036819;28;20112;-62
2021/08/29 00:40:58;;;;;;;4.38;3.97;;;21.20;53.00;;;;;;5035458;28;20044;-62
2021/08/29 00:43:24;;;;;;;5.20;4.20;;;21.20;50.90;;;;;;5036411;28;20026;-62
2021/08/29 00:45:55;;;;;;;5.82;4.15;;;21.20;50.10;;;;;;5034236;28;20505;-62
2021/08/29 00:48:21;;;;;;;5.60;3.97;;;21.00;49.00;;;;;;5036649;28;20029;-62
2021/08/29 00:50:47;;;;;;;5.15;3.90;;;21.00;56.70;;;;;;5035469;28;20033;-62
2021/08/29 00:53:17;;;;;;;4.32;3.78;;;21.00;55.30;;;;;;5018344;28;20503;-62
2021/08/29 00:55:43;;;;;;;4.35;3.80;;;20.80;49.00;;;;;;5028053;28;20029;-62
2021/08/29 00:58:09;;;;;;;5.38;4.30;;;20.90;48.20;;;;;;5033179;28;20483;-62
2021/08/29 01:00:39;;;;;;;6.40;3.63;;;20.90;47.80;;;;;;5026615;28;20120;-62
2021/08/29 01:03:04;;;;;;;5.18;3.75;;;20.90;47.80;;;;;;5031585;28;20026;-62
2021/08/29 01:05:52;;;;;;;5.22;3.47;;;21.00;47.60;;;;;;5034437;28;20025;-62
2021/08/29 01:08:18;;;;;;;3.63;3.00;;;20.80;46.90;;;;;;5035595;28;20376;-62
2021/08/29 01:10:57;;;;;;;3.78;3.08;;;20.80;47.70;;;;;;5023687;28;20076;-62
2021/08/29 01:13:34;;;;;;;3.90;3.50;;;20.90;47.30;;;;;;5014928;28;20092;-62
2021/08/29 01:16:07;;;;;;;3.30;2.97;;;20.80;47.60;;;;;;5042542;28;20029;-62
2021/08/29 01:18:39;;;;;;;3.43;3.13;;;20.80;47.60;;;;;;5055939;28;20433;-62
2021/08/29 01:21:19;;;;;;;4.18;3.17;;;20.70;47.10;;;;;;5040381;28;20026;-62
2021/08/29 01:23:50;;;;;;;3.97;2.97;;;20.70;47.90;;;;;;5016037;28;20117;-62
2021/08/29 01:26:43;;;;;;;3.05;2.78;;;20.60;47.00;;;;;;5030627;28;20488;-62
2021/08/29 01:29:11;;;;;;;5.35;2.83;;;20.70;47.40;;;;;;5035638;28;20035;-62
2021/08/29 01:31:38;;;;;;;4.90;2.83;;;20.70;47.50;;;;;;5030011;28;20038;-62
2021/08/29 01:34:07;;;;;;;3.30;3.00;;;20.70;47.00;;;;;;5027312;28;20046;-62
2021/08/29 01:36:36;;;;;;;4.32;3.00;;;20.70;46.60;;;;;;5017729;28;20026;-62
2021/08/29 01:39:03;;;;;;;4.57;2.63;;;20.60;46.40;;;;;;5015362;28;20046;-62
2021/08/29 01:41:34;;;;;;;7.47;3.20;;;20.50;46.30;;;;;;5015189;28;20535;-62
2021/08/29 01:44:02;;;;;;;4.22;3.05;;;20.50;46.40;;;;;;5016392;28;20061;-62
2021/08/29 01:46:28;;;;;;;3.17;2.75;;;20.50;46.40;;;;;;5031217;28;20083;-62
2021/08/29 01:48:54;;;;;;;3.20;2.90;;;20.40;46.40;;;;;;5034928;28;20026;-62
2021/08/29 01:51:20;;;;;;;3.42;2.83;;;20.30;46.50;;;;;;5033629;28;20030;-62
2021/08/29 01:53:46;;;;;;;3.00;2.80;;;20.50;46.80;;;;;;5034836;28;20037;-62
2021/08/29 01:56:11;;;;;;;5.70;2.75;;;20.50;47.00;;;;;;5025171;28;20075;-62
2021/08/29 01:58:37;;;;;;;3.67;2.58;;;20.30;46.40;;;;;;5015094;28;20119;-62
2021/08/29 02:01:10;;;;;;;7.93;3.20;;;20.20;46.50;;;;;;5027925;28;20037;-62
2021/08/29 02:03:36;;;;;;;3.95;3.40;;;20.30;46.60;;;;;;5033937;28;20029;-62
2021/08/29 02:06:04;;;;;;;3.45;2.58;;;20.40;46.60;;;;;;5025910;28;20479;-62
2021/08/29 02:08:31;;;;;;;2.80;2.50;;;20.40;46.80;;;;;;5015123;28;20448;-62
2021/08/29 02:10:59;;;;;;;2.42;2.22;;;20.30;46.70;;;;;;5014906;28;20030;-61
2021/08/29 02:13:27;;;;;;;3.22;2.90;;;20.30;47.00;;;;;;5014969;28;20038;-61
2021/08/29 02:15:59;;;;;;;4.28;3.03;;;20.30;46.50;;;;;;5023209;28;20417;-61
2021/08/29 02:18:27;;;;;;;3.58;3.13;;;20.20;47.30;;;;;;5033610;28;20344;-61
2021/08/29 02:20:53;;;;;;;2.60;2.40;;;20.30;46.80;;;;;;5033961;28;20036;-61
2021/08/29 02:23:21;;;;;;;3.20;2.38;;;20.30;46.90;;;;;;5034226;28;20026;-61
2021/08/29 02:25:48;;;;;;;3.25;2.42;;;20.30;48.40;;;;;;5023825;28;20025;-62
2021/08/29 02:28:15;;;;;;;2.92;2.65;;;20.40;48.90;;;;;;5014540;28;20056;-62
2021/08/29 02:30:42;;;;;;;4.55;3.15;;;20.30;47.70;;;;;;5015998;28;20531;-61
2021/08/29 02:33:11;;;;;;;3.88;2.95;;;20.30;47.70;;;;;;5020788;28;20076;-62
2021/08/29 02:35:39;;;;;;;3.25;2.60;;;20.10;47.80;;;;;;5031560;28;20105;-62
2021/08/29 02:38:05;;;;;;;3.13;2.83;;;20.10;47.90;;;;;;5033453;28;20030;-62
2021/08/29 02:40:36;;;;;;;3.30;2.70;;;20.20;47.70;;;;;;5032332;28;20117;-62
2021/08/29 02:43:02;;;;;;;3.97;3.45;;;20.10;47.60;;;;;;5034173;28;20029;-62
2021/08/29 02:45:29;;;;;;;4.10;3.25;;;20.10;47.80;;;;;;5027891;28;20101;-62
2021/08/29 02:47:55;;;;;;;3.40;2.83;;;20.10;48.40;;;;;;5015126;28;20032;-62
2021/08/29 02:50:21;;;;;;;8.65;3.20;;;20.10;48.60;;;;;;5032776;28;20473;-62
2021/08/29 02:52:47;;;;;;;3.97;3.08;;;20.00;48.60;;;;;;5033467;28;20033;-62
2021/08/29 02:55:18;;;;;;;3.20;2.95;;;20.00;48.60;;;;;;5029031;28;20022;-62
2021/08/29 02:57:54;;;;;;;5.47;3.33;;;19.90;48.30;;;;;;5013959;28;20017;-62
2021/08/29 03:00:20;;;;;;;4.03;3.42;;;19.90;48.60;;;;;;5032932;28;20075;-62
2021/08/29 03:02:46;;;;;;;3.92;3.53;;;19.90;49.20;;;;;;5030504;28;20033;-62
2021/08/29 03:05:12;;;;;;;6.00;3.40;;;20.00;49.20;;;;;;5032715;28;20476;-62
2021/08/29 03:07:37;;;;;;;4.07;3.20;;;20.00;49.20;;;;;;5033339;28;20044;-62
2021/08/29 03:10:04;;;;;;;4.80;3.08;;;20.00;49.30;;;;;;5022853;28;20084;-62
2021/08/29 03:12:30;;;;;;;3.55;2.72;;;19.80;49.40;;;;;;5013639;28;20380;-63
2021/08/29 03:14:56;;;;;;;3.92;3.55;;;19.90;49.20;;;;;;5013396;28;20060;-63
2021/08/29 03:17:22;;;;;;;4.60;3.20;;;19.80;49.30;;;;;;5032872;28;20025;-62
2021/08/29 03:19:50;;;;;;;3.60;2.90;;;19.90;49.50;;;;;;5032297;28;20044;-62
2021/08/29 03:22:17;;;;;;;4.05;2.92;;;20.00;49.10;;;;;;5013489;28;20460;-63
2021/08/29 03:24:43;;;;;;;4.45;3.13;;;19.80;49.50;;;;;;5013218;28;20511;-63
2021/08/29 03:27:09;;;;;;;3.22;2.92;;;19.80;49.80;;;;;;5013114;28;20484;-63
2021/08/29 03:29:35;;;;;;;3.88;2.65;;;19.90;49.40;;;;;;5013595;28;20026;-63
2021/08/29 03:32:01;;;;;;;3.47;3.17;;;19.90;49.40;;;;;;5029372;28;20179;-63
2021/08/29 03:34:28;;;;;;;5.18;3.10;;;19.90;49.50;;;;;;5015835;28;20087;-62
2021/08/29 03:36:54;;;;;;;3.22;2.92;;;19.80;49.60;;;;;;5027074;28;20025;-63
2021/08/29 03:39:19;;;;;;;3.17;2.65;;;19.80;49.50;;;;;;5032797;28;20032;-63
2021/08/29 03:41:45;;;;;;;3.92;2.90;;;19.70;49.00;;;;;;5021529;28;20028;-63
2021/08/29 03:44:14;;;;;;;3.88;3.15;;;19.70;49.80;;;;;;5032883;28;20018;-63
2021/08/29 03:46:40;;;;;;;5.90;3.08;;;19.80;50.40;;;;;;5032407;28;20034;-63
2021/08/29 03:49:07;;;;;;;3.78;2.60;;;19.80;50.20;;;;;;5032577;28;20021;-63
2021/08/29 03:51:34;;;;;;;4.07;3.08;;;19.80;50.30;;;;;;5020597;28;20033;-63
2021/08/29 03:54:01;;;;;;;3.55;3.00;;;19.80;49.90;;;;;;5013663;28;20036;-63
2021/08/29 03:56:28;;;;;;;3.83;3.30;;;19.70;50.20;;;;;;5022935;28;20494;-63
2021/08/29 03:58:54;;;;;;;3.83;3.13;;;19.70;50.20;;;;;;5032746;28;20116;-62
2021/08/29 04:01:20;;;;;;;3.22;2.90;;;19.70;50.50;;;;;;5022624;28;20100;-63
2021/08/29 04:03:46;;;;;;;4.43;3.38;;;19.70;50.20;;;;;;5030318;28;20041;-63
2021/08/29 04:06:13;;;;;;;3.60;2.90;;;19.70;50.00;;;;;;5030635;28;20033;-62
2021/08/29 04:08:45;;;;;;;4.07;3.28;;;19.70;50.20;;;;;;5012981;28;20105;-63
2021/08/29 04:11:11;;;;;;;3.60;3.03;;;19.70;49.90;;;;;;5020778;28;20534;-63
2021/08/29 04:13:38;;;;;;;3.72;3.40;;;19.60;50.00;;;;;;5032472;28;20073;-62
2021/08/29 04:16:04;;;;;;;3.83;2.85;;;19.60;49.80;;;;;;5031338;28;20037;-63
2021/08/29 04:18:41;;;;;;;2.80;2.53;;;19.70;50.20;;;;;;5029292;28;20033;-62
2021/08/29 04:21:08;;;;;;;3.28;2.97;;;19.70;50.40;;;;;;5013168;28;20033;-63
2021/08/29 04:23:34;;;;;;;4.05;2.75;;;19.60;50.20;;;;;;5013014;28;20075;-62
2021/08/29 04:25:59;;;;;;;3.28;2.85;;;19.40;49.40;;;;;;5012728;28;20392;-63
2021/08/29 04:28:25;;;;;;;3.38;2.50;;;19.50;50.00;;;;;;5012681;28;20022;-63
2021/08/29 04:30:52;;;;;;;3.30;2.67;;;19.50;50.10;;;;;;5014963;28;20040;-62
2021/08/29 04:33:18;;;;;;;4.05;2.67;;;19.40;49.70;;;;;;5023423;28;20041;-62
2021/08/29 04:35:44;;;;;;;4.22;2.78;;;19.50;50.10;;;;;;5030396;28;20033;-62
2021/08/29 04:38:10;;;;;;;2.70;2.50;;;19.50;49.80;;;;;;5031802;28;20044;-62
2021/08/29 04:40:35;;;;;;;2.83;2.60;;;19.50;49.60;;;;;;5031740;28;20454;-62
2021/08/29 04:43:01;;;;;;;3.17;2.40;;;19.50;50.10;;;;;;5032398;28;20383;-62
2021/08/29 04:45:27;;;;;;;2.80;2.50;;;19.50;50.10;;;;;;5024505;28;20038;-62
2021/08/29 04:47:52;;;;;;;2.75;2.30;;;19.50;49.80;;;;;;5035027;28;20025;-62
2021/08/29 04:50:18;;;;;;;3.53;2.58;;;19.60;49.60;;;;;;5035797;28;20057;-62
2021/08/29 04:52:44;;;;;;;3.28;2.60;;;19.60;49.50;;;;;;5016187;28;20034;-62
2021/08/29 04:55:09;;;;;;;4.25;2.58;;;19.60;49.60;;;;;;5016014;28;20036;-63
2021/08/29 04:57:35;;;;;;;2.47;2.00;;;19.50;49.30;;;;;;5016180;28;20456;-62
2021/08/29 05:00:00;;;;;;;2.70;2.28;;;19.50;49.30;;;;;;5033214;28;20109;-63
2021/08/29 05:02:26;;;;;;;5.57;2.33;;;19.50;49.20;;;;;;5027029;28;20464;-63
2021/08/29 05:04:52;;;;;;;1.75;1.65;;;19.60;49.50;;;;;;5035770;28;20029;-63
2021/08/29 05:07:17;;;;;;;3.17;1.95;;;19.50;49.30;;;;;;5021069;28;20080;-62
2021/08/29 05:09:43;;;;;;;3.60;2.00;;;19.50;49.70;;;;;;5015749;28;20444;-62
2021/08/29 05:12:08;;;;;;;2.17;1.75;;;19.40;49.60;;;;;;5015710;28;20037;-62
2021/08/29 05:14:34;;;;;;;1.42;1.23;;;19.40;49.30;;;;;;5015761;28;20121;-62
2021/08/29 05:16:59;;;;;;;1.63;1.50;;;19.50;49.10;;;;;;5017563;28;20034;-62
2021/08/29 05:19:25;;;;;;;1.67;1.52;;;19.50;48.40;;;;;;5035654;28;20157;-63
2021/08/29 05:21:51;;;;;;;4.80;1.85;;;19.60;48.50;;;;;;5024230;28;20045;-63
2021/08/29 05:24:16;;;;;;;3.15;1.50;;;19.60;48.20;;;;;;5014280;28;20564;-62
2021/08/29 05:26:42;;;;;;;2.67;1.50;;;19.50;47.30;;;;;;5030578;28;20037;-62
2021/08/29 05:29:07;;;;;;;1.35;1.25;;;19.60;47.40;;;;;;5015800;28;20052;-62
2021/08/29 05:31:33;;;;;;;1.45;1.23;;;19.50;47.30;;;;;;5030027;28;20052;-63
2021/08/29 05:33:58;;;;;;;2.58;1.50;;;19.60;47.20;;;;;;5015371;28;20041;-62
2021/08/29 05:36:24;;;;;;;1.52;1.10;;;19.60;46.80;;;;;;5020677;28;20033;-62
2021/08/29 05:38:50;;;;;;;3.08;1.42;;;19.60;47.10;;;;;;5035061;28;20037;-62
2021/08/29 05:41:15;;;;;;;1.80;1.27;;;19.60;47.00;;;;;;5029604;28;20059;-63
2021/08/29 05:43:41;;;;;;;2.67;1.30;;;19.70;47.30;;;;;;5015224;28;20026;-62
2021/08/29 05:46:06;;;;;;;1.80;1.52;;;19.70;47.30;;;;;;5015303;28;20129;-62
2021/08/29 05:48:32;;;;;;;2.47;1.65;;;19.80;47.60;;;;;;5029137;28;20037;-62
2021/08/29 05:50:57;;;;;;;1.35;1.25;;;19.70;47.30;;;;;;5034215;28;20117;-62
2021/08/29 05:53:23;;;;;;;2.67;1.65;;;19.70;47.60;;;;;;5033971;28;20038;-62
2021/08/29 05:55:48;;;;;;;2.83;1.77;;;19.70;47.50;;;;;;5033611;28;20030;-62
2021/08/29 05:58:14;;;;;;;1.52;1.42;;;19.80;47.40;;;;;;5033650;28;20026;-62
2021/08/29 06:00:40;;;;;;;1.45;1.33;;;19.80;47.40;;;;;;5021734;28;20034;-62
2021/08/29 06:03:05;;;;;;;1.98;1.60;;;19.80;47.30;;;;;;5033114;28;20025;-62
2021/08/29 06:05:31;;;;;;;3.00;1.67;;;19.80;47.10;;;;;;5034509;28;20120;-62
2021/08/29 06:07:57;;;;;;;2.17;1.83;;;19.80;47.80;;;;;;5034136;28;20033;-62
2021/08/29 06:10:22;;;;;;;4.32;1.50;;;19.70;47.50;;;;;;5034585;28;20052;-62
2021/08/29 06:12:48;;;;;;;3.08;1.73;;;19.80;47.40;;;;;;5025267;28;20034;-62
2021/08/29 06:15:14;;;;;;;1.70;1.60;;;19.80;47.70;;;;;;5029700;28;20036;-62
2021/08/29 06:17:39;;;;;;;2.88;1.90;;;19.80;46.90;;;;;;5027170;28;20116;-62
2021/08/29 06:20:06;;;;;;;2.30;1.90;;;19.80;46.90;;;;;;5033999;28;20490;-62
2021/08/29 06:22:31;;;;;;;2.90;1.95;;;19.80;47.50;;;;;;5029715;28;20108;-62
2021/08/29 06:24:57;;;;;;;2.00;1.63;;;19.90;47.80;;;;;;5031218;28;20171;-62
2021/08/29 06:27:22;;;;;;;3.40;2.47;;;19.90;47.90;;;;;;5033459;28;20029;-62
2021/08/29 06:29:48;;;;;;;1.63;1.52;;;19.80;48.40;;;;;;5033928;28;20037;-62
2021/08/29 06:32:14;;;;;;;3.53;2.30;;;19.90;47.90;;;;;;5023635;28;20514;-62
2021/08/29 06:34:39;;;;;;;2.25;1.98;;;19.90;47.50;;;;;;5033950;28;20407;-62
2021/08/29 06:37:05;;;;;;;2.38;1.60;;;19.90;47.30;;;;;;5022451;28;20029;-63
2021/08/29 06:39:30;;;;;;;2.83;1.70;;;19.90;47.60;;;;;;5030527;28;20032;-62
2021/08/29 06:41:56;;;;;;;3.90;1.65;;;19.90;47.70;;;;;;5033133;28;20034;-62
2021/08/29 06:44:22;;;;;;;3.22;1.90;;;20.00;48.90;;;;;;5034054;28;20029;-62
2021/08/29 06:46:47;;;;;;;2.80;1.98;;;20.00;47.60;;;;;;5030999;28;20029;-62
2021/08/29 06:49:13;;;;;;;2.80;1.75;;;20.10;48.10;;;;;;5031960;28;20032;-62
2021/08/29 06:51:38;;;;;;;2.03;1.67;;;20.10;47.70;;;;;;5042425;28;20029;-62
2021/08/29 06:54:04;;;;;;;2.40;1.20;;;20.10;47.80;;;;;;5030921;28;20033;-62
2021/08/29 06:56:30;;;;;;;1.75;1.10;;;20.20;47.00;;;;;;5031476;28;20091;-62
2021/08/29 06:58:55;;;;;;;3.60;1.13;;;20.10;47.40;;;;;;5032295;28;20034;-62
2021/08/29 07:01:21;;;;;;;1.23;1.00;;;20.20;46.60;;;;;;5027895;28;20026;-62
2021/08/29 07:03:46;;;;;;;1.48;1.15;;;20.20;45.50;;;;;;5026388;28;20554;-62
2021/08/29 07:06:12;;;;;;;0.90;0.70;;;20.30;45.70;;;;;;5031959;28;20068;-62
2021/08/29 07:08:37;;;;;;;1.38;1.02;;;20.20;45.10;;;;;;5033339;28;20033;-62
2021/08/29 07:11:03;;;;;;;2.42;0.93;;;20.30;45.70;;;;;;5030111;28;20420;-62
2021/08/29 07:13:30;;;;;;;1.95;1.13;;;20.30;45.30;;;;;;5033557;28;20133;-62
2021/08/29 07:15:56;;;;;;;1.10;1.00;;;20.40;46.30;;;;;;5021139;28;20053;-62
2021/08/29 07:18:22;;;;;;;1.45;1.00;;;20.40;45.60;;;;;;5025615;28;20068;-62
2021/08/29 07:20:47;;;;;;;2.55;1.23;;;20.50;46.30;;;;;;5026542;28;20105;-62
2021/08/29 07:23:13;;;;;;;1.33;0.80;;;20.50;46.10;;;;;;5019334;28;20025;-62
2021/08/29 07:25:39;;;;;;;3.35;1.67;;;20.50;45.80;;;;;;5023452;28;20030;-62
2021/08/29 07:28:05;;;;;;;2.28;1.15;;;20.60;45.90;;;;;;5028612;28;20041;-62
2021/08/29 07:30:31;;;;;;;2.10;1.00;;;20.60;46.30;;;;;;5033045;28;20064;-62
2021/08/29 07:32:57;;;;;;;1.77;1.10;;;20.60;45.80;;;;;;5031682;28;20034;-62
2021/08/29 07:35:22;;;;;;;1.60;1.10;;;20.60;45.80;;;;;;5019593;28;20026;-62
2021/08/29 07:37:48;;;;;;;0.88;0.88;;;20.60;45.80;;;;;;5019689;28;20064;-62
2021/08/29 07:40:14;;;;;;;1.20;1.10;;;20.70;44.30;;;;;;5017251;28;20030;-62
2021/08/29 07:42:40;;;;;;;1.63;1.00;;;20.60;43.80;;;;;;5030667;28;20021;-63
2021/08/29 07:45:06;;;;;;;1.17;0.98;;;20.70;44.00;;;;;;5032614;28;20035;-63
2021/08/29 07:47:32;;;;;;;2.20;1.30;;;20.70;44.20;;;;;;5032224;28;20436;-62
2021/08/29 07:49:58;;;;;;;1.27;0.65;;;20.80;44.00;;;;;;5030850;28;20033;-63
2021/08/29 07:52:24;;;;;;;1.85;0.95;;;20.90;43.30;;;;;;5031495;28;20032;-63
2021/08/29 07:54:50;;;;;;;1.15;1.05;;;20.90;42.70;;;;;;5031390;28;20037;-63
2021/08/29 07:57:15;;;;;;;1.05;0.90;;;20.90;42.90;;;;;;5026230;28;20049;-62
2021/08/29 07:59:41;;;;;;;1.58;0.90;;;20.90;41.70;;;;;;5029619;28;20075;-62
2021/08/29 08:02:07;;;;;;;1.00;0.70;;;20.90;41.80;;;;;;5026445;28;20025;-62
2021/08/29 08:04:32;;;;;;;0.80;0.80;;;20.90;41.60;;;;;;5021195;28;20072;-62
2021/08/29 08:06:58;;;;;;;1.35;1.10;;;21.00;41.70;;;;;;5027424;28;20084;-62
2021/08/29 08:09:23;;;;;;;0.93;0.80;;;21.10;41.60;;;;;;5024728;28;20048;-62
2021/08/29 08:11:49;;;;;;;2.60;1.63;;;21.10;41.30;;;;;;5030949;28;20462;-62
2021/08/29 08:14:15;;;;;;;2.88;0.80;;;21.10;41.10;;;;;;5032262;28;20025;-62
2021/08/29 08:16:41;;;;;;;1.35;0.60;;;21.10;42.50;;;;;;5029315;28;20617;-62
2021/08/29 08:19:06;;;;;;;1.83;1.20;;;21.20;41.70;;;;;;5028179;28;20065;-63
2021/08/29 08:21:32;;;;;;;2.70;1.27;;;21.20;41.90;;;;;;5031576;28;20128;-62
2021/08/29 08:23:58;;;;;;;1.88;1.10;;;21.30;43.10;;;;;;5032372;28;20040;-62
2021/08/29 08:26:23;;;;;;;3.25;1.40;;;21.20;42.30;;;;;;5024626;28;20051;-62
2021/08/29 08:28:49;;;;;;;6.35;1.52;;;21.30;42.90;;;;;;5029569;28;20405;-63
2021/08/29 08:31:15;;;;;;;1.52;1.15;;;21.40;42.80;;;;;;5034589;28;20073;-62
2021/08/29 08:33:40;;;;;;;3.28;1.40;;;21.50;42.30;;;;;;5029155;28;20037;-62
2021/08/29 08:36:06;;;;;;;1.30;1.20;;;21.50;41.80;;;;;;5019284;28;20030;-62
2021/08/29 08:38:31;;;;;;;2.40;1.25;;;21.50;41.90;;;;;;5035604;28;20021;-62
2021/08/29 08:40:57;;;;;;;1.85;1.08;;;21.60;41.30;;;;;;5035872;28;20032;-62
2021/08/29 08:43:23;;;;;;;1.83;0.90;;;21.70;41.20;;;;;;5035047;28;20025;-62
2021/08/29 08:45:49;;;;;;;1.23;1.05;;;21.80;39.80;;;;;;5034515;28;20029;-62
2021/08/29 08:48:19;;;;;;;1.50;1.00;;;21.80;39.50;;;;;;5034048;28;20029;-63
2021/08/29 08:50:50;;;;;;;1.13;0.90;;;21.70;39.30;;;;;;5035773;28;20067;-62
2021/08/29 08:53:19;;;;;;;1.33;0.70;;;21.80;39.50;;;;;;5033822;28;20399;-62
2021/08/29 08:55:47;;;;;;;2.97;1.27;;;21.90;39.20;;;;;;5019955;28;20034;-62
2021/08/29 08:58:14;;;;;;;0.93;0.93;;;21.80;38.70;;;;;;5025859;28;20109;-62
2021/08/29 09:00:40;;;;;;;1.85;0.90;;;21.90;37.80;;;;;;5019358;28;20037;-62
2021/08/29 09:03:06;;;;;;;2.63;1.08;;;22.00;38.10;;;;;;5017779;28;20041;-62
2021/08/29 09:05:32;;;;;;;0.85;0.85;;;22.00;37.60;;;;;;5035555;28;20391;-62
2021/08/29 09:07:58;;;;;;;0.85;0.82;;;22.10;38.30;;;;;;5032286;28;20037;-62
2021/08/29 09:10:23;;;;;;;2.55;1.10;;;22.10;37.00;;;;;;5033902;28;20521;-62
2021/08/29 09:12:57;;;;;;;1.30;1.20;;;22.00;37.00;;;;;;5025791;28;20041;-62
2021/08/29 09:15:23;;;;;;;0.82;0.80;;;22.10;37.30;;;;;;5033159;28;20025;-62
2021/08/29 09:17:48;;;;;;;1.48;1.13;;;22.20;36.50;;;;;;5032606;28;20076;-62
2021/08/29 09:20:39;;;;;;;4.05;3.65;;;22.30;36.00;;;;;;5035125;28;20021;-62
2021/08/29 09:23:11;;;;;;;4.07;1.27;;;22.40;36.50;;;;;;5033960;28;20014;-62
2021/08/29 09:25:43;;;;;;;1.77;1.20;;;22.40;35.50;;;;;;5035180;28;20030;-62
2021/08/29 09:28:11;;;;;;;1.45;1.33;;;22.40;36.10;;;;;;5026038;28;20040;-62
2021/08/29 09:30:41;;;;;;;1.88;1.30;;;22.60;36.00;;;;;;5024442;28;20467;-61
2021/08/29 09:33:07;;;;;;;1.50;1.20;;;22.60;35.70;;;;;;5029159;28;20123;-62
2021/08/29 09:35:35;;;;;;;1.50;1.30;;;22.70;35.30;;;;;;5035107;28;20092;-62
2021/08/29 09:38:02;;;;;;;4.32;1.20;;;22.70;35.60;;;;;;5034320;28;20022;-62
2021/08/29 09:40:33;;;;;;;2.30;1.05;;;22.70;35.50;;;;;;5033587;28;20025;-62
2021/08/29 09:43:02;;;;;;;1.63;1.50;;;22.80;34.80;;;;;;5028309;28;20025;-62
2021/08/29 09:45:30;;;;;;;2.45;1.00;;;22.90;33.90;;;;;;5032318;28;20159;-62
2021/08/29 09:48:03;;;;;;;1.13;1.00;;;23.00;34.20;;;;;;5043559;28;20035;-63
2021/08/29 09:50:31;;;;;;;1.10;1.10;;;22.90;34.50;;;;;;5034026;28;20037;-62
2021/08/29 09:53:11;;;;;;;1.35;0.95;;;22.90;33.50;;;;;;5021636;28;20029;-62
2021/08/29 09:55:42;;;;;;;2.00;0.95;;;23.00;33.30;;;;;;5033648;28;20115;-62
2021/08/29 09:58:23;;;;;;;2.88;1.08;;;23.00;32.10;;;;;;5033418;28;20029;-62
2021/08/29 10:01:08;;;;;;;2.55;0.88;;;23.20;32.00;;;;;;5032361;28;20076;-62
2021/08/29 10:03:44;;;;;;;3.83;1.77;;;23.30;30.90;;;;;;5033360;28;20026;-62
2021/08/29 10:06:15;;;;;;;2.53;1.02;;;23.30;32.10;;;;;;5032429;28;20030;-62
2021/08/29 10:08:42;;;;;;;1.05;0.88;;;23.40;32.40;;;;;;5033217;28;20430;-62
2021/08/29 10:11:09;;;;;;;1.65;1.02;;;23.40;32.60;;;;;;5034204;28;20387;-62
2021/08/29 10:13:36;;;;;;;4.15;1.45;;;23.50;32.10;;;;;;5033361;28;20037;-62
2021/08/29 10:16:03;;;;;;;1.48;1.10;;;23.60;31.90;;;;;;5034217;28;20029;-62
2021/08/29 10:18:30;;;;;;;3.55;1.20;;;23.60;31.70;;;;;;5031416;28;20057;-62
2021/08/29 10:20:58;;;;;;;1.67;1.10;;;23.70;30.80;;;;;;5033994;28;20102;-62
2021/08/29 10:23:23;;;;;;;1.83;1.10;;;23.70;31.50;;;;;;5027676;28;20391;-62
2021/08/29 10:25:51;;;;;;;1.13;1.00;;;23.60;31.10;;;;;;5034147;28;20115;-62
2021/08/29 10:28:20;;;;;;;2.05;1.02;;;23.70;30.80;;;;;;5032388;28;20103;-61
2021/08/29 10:30:46;;;;;;;3.03;1.20;;;23.80;29.80;;;;;;5032397;28;20104;-61
2021/08/29 10:33:17;;;;;;;2.70;1.10;;;23.90;30.20;;;;;;5021172;28;20033;-61
2021/08/29 10:35:45;;;;;;;1.33;0.95;;;23.90;30.40;;;;;;5031624;28;20112;-62
2021/08/29 10:38:11;;;;;;;1.90;0.95;;;24.00;30.60;;;;;;5031292;28;20031;-61
2021/08/29 10:40:37;;;;;;;4.20;1.10;;;24.40;30.70;;;;;;5033869;28;20028;-61
2021/08/29 10:43:04;;;;;;;1.17;1.08;;;24.30;30.70;;;;;;5024911;28;20230;-61
2021/08/29 10:45:29;;;;;;;1.17;1.02;;;24.30;30.40;;;;;;5024541;28;20037;-61
2021/08/29 10:47:56;;;;;;;3.22;1.13;;;24.40;31.00;;;;;;5019879;28;20438;-62
2021/08/29 10:50:22;;;;;;;1.58;0.90;;;24.60;30.20;;;;;;5013843;28;20033;-62
2021/08/29 10:52:48;;;;;;;0.70;0.70;;;24.60;29.50;;;;;;5031894;28;20036;-62
2021/08/29 10:55:18;;;;;;;1.35;1.02;;;24.60;29.10;;;;;;5033643;28;20390;-62
2021/08/29 10:57:45;;;;;;;2.40;1.10;;;24.70;29.40;;;;;;5023281;28;20026;-62
2021/08/29 11:00:14;;;;;;;1.50;1.40;;;24.80;28.70;;;;;;5018698;28;20029;-59
2021/08/29 11:02:50;;;;;;;1.55;1.30;;;24.90;29.10;;;;;;5018277;28;20048;-60
2021/08/29 11:05:29;;;;;;;2.63;1.30;;;25.00;28.20;;;;;;5040129;28;20348;-59
2021/08/29 11:07:56;;;;;;;1.42;1.33;;;25.10;28.50;;;;;;5015220;28;20029;-60
2021/08/29 11:10:37;;;;;;;7.03;2.70;;;25.20;27.40;;;;;;5030888;28;20032;-60
2021/08/29 11:13:27;;;;;;;3.90;1.38;;;25.20;27.60;;;;;;5019621;28;20034;-61
2021/08/29 11:16:16;;;;;;;2.63;1.33;;;25.20;27.40;;;;;;5018724;28;20067;-63
2021/08/29 11:19:00;;;;;;;2.28;1.23;;;25.50;26.30;;;;;;5034169;28;20503;-63
2021/08/29 11:21:35;;;;;;;1.98;1.27;;;25.60;27.10;;;;;;5024590;28;20097;-63
2021/08/29 11:24:01;;;;;;;2.05;1.33;;;25.50;26.70;;;;;;5032086;28;20033;-61
2021/08/29 11:26:28;;;;;;;1.42;0.90;;;25.50;27.30;;;;;;5013597;28;20025;-61
2021/08/29 11:28:54;;;;;;;2.38;1.23;;;25.60;27.40;;;;;;5025615;28;20483;-61
2021/08/29 11:31:54;;;;;;;2.25;0.90;;;25.70;27.00;;;;;;5024204;28;20046;-61
2021/08/29 11:34:20;;;;;;;1.50;1.40;;;26.10;26.30;;;;;;5027095;28;20052;-61
2021/08/29 11:36:46;;;;;;;2.03;1.48;;;26.20;26.30;;;;;;5031057;28;20029;-61
2021/08/29 11:39:35;;;;;;;2.70;1.35;;;26.00;26.30;;;;;;5031612;28;20036;-61
2021/08/29 11:42:14;;;;;;;3.25;1.60;;;26.30;26.50;;;;;;5013697;28;20056;-61
2021/08/29 11:44:39;;;;;;;2.97;1.80;;;26.70;25.90;;;;;;5030958;28;20512;-62
2021/08/29 11:47:06;;;;;;;2.30;1.67;;;27.10;25.50;;;;;;5030833;28;20030;-61
2021/08/29 11:49:32;;;;;;;2.45;1.45;;;27.50;24.70;;;;;;5031581;28;20487;-62
2021/08/29 11:51:57;;;;;;;1.58;1.48;;;30.80;22.30;;;;;;5018853;28;20033;-62
2021/08/29 11:54:23;;;;;;;1.63;1.48;;;33.50;19.90;;;;;;5031514;28;20142;-61
2021/08/29 11:56:49;;;;;;;4.38;1.48;;;;;;;;;;5031962;28;20026;-61
2021/08/29 11:59:32;;;;;;;3.50;2.08;;;34.00;46.30;;;;;;5023245;28;20066;-62
2021/08/29 12:01:59;;;;;;;2.88;1.75;;;31.20;48.40;;;;;;5017771;28;20022;-61
2021/08/29 12:04:25;;;;;;;1.90;1.40;;;31.40;44.20;;;;;;5022212;28;20384;-61
2021/08/29 12:06:57;;;;;;;1.58;1.30;;;31.10;40.80;;;;;;5024589;28;20105;-61
2021/08/29 12:09:27;;;;;;;1.75;1.65;;;31.10;38.80;;;;;;5031250;28;20039;-61
2021/08/29 12:11:55;;;;;;;2.85;1.38;;;31.80;38.00;;;;;;5030881;28;20081;-62
2021/08/29 12:14:28;;;;;;;1.75;1.30;;;31.80;37.30;;;;;;5031031;28;20061;-62
2021/08/29 12:17:00;;;;;;;1.73;1.63;;;;;;;;;;5032626;28;20100;-61
2021/08/29 12:19:31;;;;;;;1.77;1.65;;;33.50;20.70;;;;;;5030770;28;20162;-62
2021/08/29 12:21:58;;;;;;;1.95;1.73;;;32.60;33.20;;;;;;5030441;28;20021;-62
2021/08/29 12:24:27;;;;;;;2.88;1.98;;;33.90;16.80;;;;;;5030551;28;20025;-62
2021/08/29 12:27:01;;;;;;;1.80;1.60;;;35.50;20.50;;;;;;5031353;28;20036;-63
2021/08/29 12:29:28;;;;;;;1.85;1.75;;;35.60;20.50;;;;;;5029014;28;20048;-61
2021/08/29 12:32:05;;;;;;;1.88;1.77;;;34.00;19.60;;;;;;5031890;28;20111;-61
2021/08/29 12:34:31;;;;;;;3.90;1.80;;;33.90;18.00;;;;;;5019280;28;20037;-62
2021/08/29 12:37:07;;;;;;;2.92;1.50;;;33.90;25.60;;;;;;5031399;28;20028;-62
2021/08/29 12:39:33;;;;;;;3.55;2.00;;;34.50;19.10;;;;;;5029814;28;20034;-62
2021/08/29 12:42:21;;;;;;;2.47;1.50;;;34.70;21.40;;;;;;5029258;28;20025;-62
2021/08/29 12:44:48;;;;;;;2.47;2.10;;;;;;;;;;5030076;28;20025;-62
2021/08/29 12:47:14;;;;;;;2.05;1.95;;;34.80;29.00;;;;;;5031534;28;20056;-62
2021/08/29 12:49:41;;;;;;;3.08;2.25;;;35.40;12.40;;;;;;5018683;28;20514;-61
2021/08/29 12:52:08;;;;;;;1.90;1.80;;;36.50;21.00;;;;;;5030392;28;20506;-62